Airfield :
LOGIN :

Register | Disclaimer

   EN    FR    IT 

 










Legend :    VFR   Marginal VFR   IFR   Intensive IFR   Very Intensive IFR
Visi :
Ceiling :
>= 8 km
>= 3000ft
5 to 8 km
1000 to 3000 ft
1500m to 5 km
500 to 1000 ft
800 to 1500m
200 to 500 ft
< 800m
< 200 ft
Symbols :   Thunderstorms  Fog  Heavy snow  Heavy precipitations  Wind > 20 kt
SIGMETs :     Misc.  Thunderstorms  Icing  Turbulence  Mountain Waves  Volcanic Ashes







- Airport Elevation : 74 ft
- IATA code : EIN


EHEH - Eindhoven

CURRENT METAR :
  • 230325Z AUTO 22008KT 9999 OVC180 06/05 Q1029 BLU

EXPIRED METARs :
  • 230255Z AUTO 21007KT 9999 OVC250 05/04 Q1029 BLU
  • 230225Z AUTO 22007KT 190V270 9999 OVC200 05/04 Q1030 BLU
  • 230155Z AUTO 22007KT 9999 OVC250 05/04 Q1030 BLU
  • 230125Z AUTO 22008KT 9999 OVC270 04/02 Q1031 BLU
  • 230055Z AUTO 22007KT 9999 OVC350 03/02 Q1032 BLU

TAF TAF EHEH
Valid from the 23 at 00:00 until the 24 at 06:00 UTC


230000Z 2300/2406 22005KT CAVOK
BECMG 2303/2306 24012KT BKN025
PROB40
TEMPO 2306/2316 SCT016 BKN022
BECMG 2309/2311 29015G25KT
BECMG 2317/2319 29012KT
BECMG 2322/2400 SCT015 BKN020
PROB40
TEMPO 2400/2406 SCT008 BKN012
No reported NOTAMs for that airfield.



MET'MAP, your aeronautical weather chart ! - Copyright ORBIFLY December 2007 - Disclaimer

ORBIFLY MET'MAP TEAM :

Programming & Development : Alexandra Zaïnal
Concept & Development : Baudouin d'Aumeries
Co-Development & Prog : Marc-Olivier Méhu
Technical & hardware support : Manuel Goepfert

Contact : metmap@orbifly.com




SOURCES & CREDITS :

   NOAA